createdAt,value
2023-03-07T00:01:00.416Z,100.00
2023-03-07T00:03:27.281Z,100.00
2023-03-07T00:06:05.205Z,100.00
2023-03-07T00:08:32.504Z,100.00
2023-03-07T00:11:03.274Z,100.00
2023-03-07T00:13:34.134Z,100.00
2023-03-07T00:16:06.402Z,100.00
2023-03-07T00:18:33.689Z,100.00
2023-03-07T00:21:02.897Z,100.00
2023-03-07T00:23:29.510Z,100.00
2023-03-07T00:26:01.187Z,100.00
2023-03-07T00:28:28.801Z,100.00
2023-03-07T00:31:00.573Z,100.00
2023-03-07T00:33:27.571Z,100.00
2023-03-07T00:35:59.302Z,100.00
2023-03-07T00:38:27.071Z,100.00
2023-03-07T00:41:01.641Z,100.00
2023-03-07T00:43:28.831Z,100.00
2023-03-07T00:45:56.656Z,100.00
2023-03-07T00:48:24.239Z,100.00
2023-03-07T00:50:51.600Z,100.00
2023-03-07T00:53:19.016Z,100.00
2023-03-07T00:55:54.779Z,100.00
2023-03-07T00:58:21.478Z,100.00
2023-03-07T01:00:48.152Z,100.00
2023-03-07T01:03:14.750Z,99.27
2023-03-07T01:05:41.890Z,99.90
2023-03-07T01:08:08.666Z,99.69
2023-03-07T01:10:35.376Z,99.44
2023-03-07T01:13:02.211Z,97.90
2023-03-07T01:15:28.837Z,98.11
2023-03-07T01:17:55.459Z,97.87
2023-03-07T01:20:22.217Z,97.77
2023-03-07T01:22:49.112Z,96.93
2023-03-07T01:25:15.914Z,96.89
2023-03-07T01:27:42.542Z,95.70
2023-03-07T01:30:09.997Z,95.62
2023-03-07T01:32:36.656Z,94.86
2023-03-07T01:35:03.596Z,95.10
2023-03-07T01:37:30.169Z,94.91
2023-03-07T01:39:56.947Z,95.93
2023-03-07T01:42:23.570Z,95.09
2023-03-07T01:45:07.503Z,94.85
2023-03-07T01:47:35.220Z,94.75
2023-03-07T01:50:06.603Z,94.75
2023-03-07T01:52:37.063Z,94.49
2023-03-07T01:55:11.544Z,95.32
2023-03-07T01:57:41.793Z,94.98
2023-03-07T02:00:13.771Z,94.77
2023-03-07T02:02:45.450Z,94.44
2023-03-07T02:05:23.730Z,94.21
2023-03-07T02:07:51.829Z,94.27
2023-03-07T02:10:21.664Z,95.25
2023-03-07T02:12:49.210Z,94.78
2023-03-07T02:15:16.077Z,94.57
2023-03-07T02:17:44.904Z,94.24
2023-03-07T02:20:30.262Z,95.01
2023-03-07T02:22:57.178Z,94.03
2023-03-07T02:25:44.097Z,94.13
2023-03-07T02:28:16.824Z,94.75
2023-03-07T02:31:06.145Z,94.87
2023-03-07T02:33:32.977Z,94.43
2023-03-07T02:36:08.370Z,94.96
2023-03-07T02:38:40.089Z,94.98
2023-03-07T02:41:11.071Z,95.13
2023-03-07T02:43:37.948Z,95.79
2023-03-07T02:46:05.046Z,96.12
2023-03-07T02:48:32.103Z,96.29
2023-03-07T02:50:58.762Z,96.29
2023-03-07T02:53:25.504Z,96.22
2023-03-07T02:55:52.109Z,96.17
2023-03-07T02:58:18.704Z,96.46
2023-03-07T03:00:45.420Z,96.93
2023-03-07T03:03:12.254Z,97.30
2023-03-07T03:05:38.979Z,97.76
2023-03-07T03:08:06.350Z,97.62
2023-03-07T03:10:33.073Z,97.52
2023-03-07T03:12:59.653Z,97.79
2023-03-07T03:15:26.506Z,97.75
2023-03-07T03:17:54.602Z,97.74
2023-03-07T03:20:21.208Z,98.42
2023-03-07T03:22:47.806Z,98.56
2023-03-07T03:25:15.311Z,98.22
2023-03-07T03:27:42.143Z,98.45
2023-03-07T03:30:11.201Z,98.85
2023-03-07T03:32:39.036Z,99.02
2023-03-07T03:35:07.055Z,99.52
2023-03-07T03:37:34.638Z,100.00
2023-03-07T03:40:01.261Z,99.85
2023-03-07T03:42:28.130Z,99.99
2023-03-07T03:44:54.920Z,100.00
2023-03-07T03:47:21.548Z,100.00
2023-03-07T03:49:48.239Z,100.00
2023-03-07T03:52:14.820Z,100.00
2023-03-07T03:54:41.379Z,100.00
2023-03-07T03:57:08.047Z,100.00
2023-03-07T03:59:34.626Z,100.00
2023-03-07T04:02:01.255Z,100.00
2023-03-07T04:04:27.899Z,100.00
2023-03-07T04:06:54.466Z,100.00
2023-03-07T04:09:20.997Z,100.00
2023-03-07T04:11:47.537Z,100.00
2023-03-07T04:14:14.309Z,100.00
2023-03-07T04:16:41.018Z,100.00
2023-03-07T04:19:10.227Z,100.00
2023-03-07T04:21:36.912Z,100.00
2023-03-07T04:24:03.830Z,100.00
2023-03-07T04:26:30.435Z,100.00
2023-03-07T04:28:57.060Z,100.00
2023-03-07T04:31:26.477Z,100.00
2023-03-07T04:33:54.942Z,100.00
2023-03-07T04:36:22.638Z,100.00
2023-03-07T04:38:50.080Z,100.00
2023-03-07T04:41:19.589Z,100.00
2023-03-07T04:43:46.532Z,100.00
2023-03-07T04:46:15.707Z,100.00
2023-03-07T04:48:42.499Z,100.00
2023-03-07T04:51:09.542Z,100.00
2023-03-07T04:53:36.227Z,100.00
2023-03-07T04:56:04.941Z,100.00
2023-03-07T04:58:32.320Z,100.00
2023-03-07T05:01:01.201Z,100.00
2023-03-07T05:03:28.828Z,100.00
2023-03-07T05:05:55.908Z,100.00
2023-03-07T05:08:22.973Z,100.00
2023-03-07T05:10:49.680Z,100.00
2023-03-07T05:13:16.340Z,100.00
2023-03-07T05:15:42.993Z,100.00
2023-03-07T05:18:09.627Z,100.00
2023-03-07T05:20:36.288Z,100.00
2023-03-07T05:23:02.888Z,100.00
2023-03-07T05:25:29.726Z,100.00
2023-03-07T05:27:56.253Z,100.00
2023-03-07T05:30:23.002Z,100.00
2023-03-07T05:32:51.501Z,100.00
2023-03-07T05:35:18.340Z,100.00
2023-03-07T05:37:45.054Z,100.00
2023-03-07T05:40:13.101Z,100.00
2023-03-07T05:42:39.962Z,100.00
2023-03-07T05:45:07.424Z,100.00
2023-03-07T05:47:34.036Z,100.00
2023-03-07T05:50:00.668Z,100.00
2023-03-07T05:52:29.152Z,100.00
2023-03-07T05:54:55.845Z,100.00
2023-03-07T05:57:23.451Z,100.00
2023-03-07T05:59:50.197Z,100.00
2023-03-07T06:02:17.239Z,100.00
2023-03-07T06:04:44.337Z,100.00
2023-03-07T06:07:10.974Z,100.00
2023-03-07T06:09:37.776Z,100.00
2023-03-07T06:12:04.738Z,100.00
2023-03-07T06:14:34.404Z,100.00
2023-03-07T06:17:02.594Z,100.00
2023-03-07T06:19:29.378Z,100.00
2023-03-07T06:21:55.884Z,100.00
2023-03-07T06:24:22.353Z,100.00
2023-03-07T06:26:49.062Z,100.00
2023-03-07T06:29:15.725Z,100.00
2023-03-07T06:31:42.468Z,100.00
2023-03-07T06:34:09.407Z,100.00
2023-03-07T06:36:36.110Z,100.00
2023-03-07T06:39:02.889Z,100.00
2023-03-07T06:41:29.833Z,100.00
2023-03-07T06:43:56.639Z,100.00
2023-03-07T06:46:23.275Z,100.00
2023-03-07T06:48:52.240Z,100.00
2023-03-07T06:51:19.066Z,100.00
2023-03-07T06:53:45.786Z,100.00
2023-03-07T06:56:12.329Z,100.00
2023-03-07T06:58:38.943Z,100.00
2023-03-07T07:01:05.812Z,100.00
2023-03-07T07:03:32.441Z,100.00
2023-03-07T07:05:59.138Z,100.00
2023-03-07T07:08:26.024Z,100.00
2023-03-07T07:10:52.752Z,100.00
2023-03-07T07:13:19.424Z,100.00
2023-03-07T07:15:46.275Z,100.00
2023-03-07T07:18:14.106Z,100.00
2023-03-07T07:20:40.710Z,100.00
2023-03-07T07:23:07.493Z,100.00
2023-03-07T07:25:34.294Z,100.00
2023-03-07T07:28:01.117Z,100.00
2023-03-07T07:30:30.727Z,100.00
2023-03-07T07:32:57.505Z,100.00
2023-03-07T07:35:24.440Z,100.00
2023-03-07T07:37:51.017Z,100.00
2023-03-07T07:40:17.862Z,100.00
2023-03-07T07:42:44.738Z,100.00
2023-03-07T07:45:11.685Z,100.00
2023-03-07T07:47:38.387Z,100.00
2023-03-07T07:50:06.003Z,100.00
2023-03-07T07:52:32.775Z,100.00
2023-03-07T07:54:59.986Z,100.00
2023-03-07T07:57:26.844Z,100.00
2023-03-07T07:59:53.772Z,100.00
2023-03-07T08:02:21.169Z,100.00
2023-03-07T08:04:47.867Z,100.00
2023-03-07T08:07:14.769Z,100.00
2023-03-07T08:09:41.563Z,100.00
2023-03-07T08:12:11.745Z,100.00
2023-03-07T08:14:39.325Z,100.00
2023-03-07T08:17:06.400Z,100.00
2023-03-07T08:19:33.398Z,100.00
2023-03-07T08:22:00.675Z,100.00
2023-03-07T08:24:39.988Z,100.00
2023-03-07T08:27:07.413Z,100.00
2023-03-07T08:29:35.399Z,100.00
2023-03-07T08:32:02.157Z,100.00
2023-03-07T08:34:28.934Z,100.00
2023-03-07T08:36:55.642Z,100.00
2023-03-07T08:39:22.215Z,100.00
2023-03-07T08:41:48.777Z,100.00
2023-03-07T08:44:15.335Z,100.00
2023-03-07T08:46:42.125Z,100.00
2023-03-07T08:49:08.837Z,99.91
2023-03-07T08:51:35.656Z,100.00
2023-03-07T08:54:02.252Z,99.69
2023-03-07T08:56:28.772Z,100.00
2023-03-07T08:58:55.434Z,100.00
2023-03-07T09:01:22.479Z,98.67
2023-03-07T09:03:49.403Z,98.04
2023-03-07T09:06:18.581Z,97.33
2023-03-07T09:08:47.652Z,97.15
2023-03-07T09:11:15.773Z,97.87
2023-03-07T09:13:51.446Z,96.71
2023-03-07T09:16:19.256Z,96.65
2023-03-07T09:18:45.701Z,95.49
2023-03-07T09:21:12.923Z,95.84
2023-03-07T09:23:39.451Z,96.63
2023-03-07T09:26:06.849Z,96.78
2023-03-07T09:28:33.427Z,95.56
2023-03-07T09:31:00.577Z,96.65
2023-03-07T09:33:27.523Z,96.97
2023-03-07T09:35:54.242Z,96.75
2023-03-07T09:38:20.899Z,96.92
2023-03-07T09:40:48.331Z,94.32
2023-03-07T09:43:33.956Z,93.85
2023-03-07T09:46:31.272Z,95.08
2023-03-07T09:49:18.130Z,92.90
2023-03-07T09:51:48.860Z,91.01
2023-03-07T09:54:22.364Z,91.08
2023-03-07T09:56:59.793Z,90.57
2023-03-07T09:59:43.663Z,90.88
2023-03-07T10:02:28.848Z,88.89
2023-03-07T10:05:20.744Z,88.80
2023-03-07T10:07:47.531Z,87.41
2023-03-07T10:10:32.081Z,87.30
2023-03-07T10:13:19.995Z,88.13
2023-03-07T10:16:27.219Z,84.95
2023-03-07T10:19:31.103Z,83.85
2023-03-07T10:22:13.508Z,85.53
2023-03-07T10:24:52.973Z,85.32
2023-03-07T10:27:25.939Z,84.39
2023-03-07T10:29:55.106Z,84.48
2023-03-07T10:32:35.407Z,83.12
2023-03-07T10:35:15.118Z,81.77
2023-03-07T10:38:08.284Z,81.05
2023-03-07T10:40:55.303Z,80.62
2023-03-07T10:43:31.578Z,79.82
2023-03-07T10:46:23.596Z,79.90
2023-03-07T10:49:08.766Z,78.89
2023-03-07T10:52:12.315Z,78.92
2023-03-07T10:54:39.968Z,77.53
2023-03-07T10:57:06.629Z,77.52
2023-03-07T10:59:33.664Z,76.71
2023-03-07T11:02:02.278Z,77.00
2023-03-07T11:04:42.556Z,77.65
2023-03-07T11:07:28.171Z,77.83
2023-03-07T11:09:56.344Z,77.19
2023-03-07T11:12:24.538Z,76.92
2023-03-07T11:15:09.562Z,76.62
2023-03-07T11:17:45.066Z,76.58
2023-03-07T11:20:47.612Z,75.28
2023-03-07T11:23:17.175Z,74.98
2023-03-07T11:25:44.464Z,75.66
2023-03-07T11:28:30.965Z,76.08
2023-03-07T11:31:23.200Z,74.95
2023-03-07T11:34:11.522Z,74.42
2023-03-07T11:36:44.221Z,77.09
2023-03-07T11:39:37.669Z,77.10
2023-03-07T11:42:15.039Z,76.19
2023-03-07T11:44:57.452Z,76.54
2023-03-07T11:47:48.339Z,76.22
2023-03-07T11:50:35.812Z,75.67
2023-03-07T11:53:30.322Z,75.74
2023-03-07T11:56:16.152Z,77.04
2023-03-07T11:59:04.574Z,78.36
2023-03-07T12:02:06.853Z,77.78
2023-03-07T12:05:11.951Z,78.04
2023-03-07T12:08:07.879Z,78.51
2023-03-07T12:11:16.743Z,78.61
2023-03-07T12:14:11.015Z,78.84
2023-03-07T12:16:53.005Z,78.36
2023-03-07T12:19:43.307Z,79.29
2023-03-07T12:22:29.772Z,78.66
2023-03-07T12:25:02.470Z,78.75
2023-03-07T12:27:35.490Z,77.73
2023-03-07T12:30:20.449Z,78.25
2023-03-07T12:32:49.933Z,78.51
2023-03-07T12:35:25.391Z,78.29
2023-03-07T12:38:18.133Z,78.30
2023-03-07T12:40:54.273Z,77.12
2023-03-07T12:43:33.354Z,77.53
2023-03-07T12:46:21.754Z,77.06
2023-03-07T12:49:02.115Z,77.42
2023-03-07T12:51:37.139Z,77.49
2023-03-07T12:54:12.606Z,77.40
2023-03-07T12:57:02.636Z,77.44
2023-03-07T12:59:31.469Z,77.69
2023-03-07T13:01:58.731Z,77.65
2023-03-07T13:04:25.415Z,76.91
2023-03-07T13:06:55.480Z,77.43
2023-03-07T13:09:25.011Z,76.60
2023-03-07T13:12:16.583Z,76.19
2023-03-07T13:14:54.450Z,76.86
2023-03-07T13:17:42.021Z,76.55
2023-03-07T13:20:36.836Z,76.51
2023-03-07T13:23:23.042Z,76.62
2023-03-07T13:25:56.576Z,77.33
2023-03-07T13:28:40.814Z,77.44
2023-03-07T13:31:20.722Z,77.42
2023-03-07T13:33:48.114Z,77.62
2023-03-07T13:36:31.876Z,78.18
2023-03-07T13:38:58.506Z,78.30
2023-03-07T13:41:45.719Z,78.62
2023-03-07T13:44:30.588Z,79.05
2023-03-07T13:47:02.730Z,80.45
2023-03-07T13:49:41.245Z,80.29
2023-03-07T13:52:30.434Z,80.52
2023-03-07T13:54:59.692Z,80.00
2023-03-07T13:57:34.044Z,79.22
2023-03-07T14:00:02.632Z,80.50
2023-03-07T14:02:29.736Z,79.94
2023-03-07T14:04:58.378Z,79.96
2023-03-07T14:07:32.102Z,79.48
2023-03-07T14:10:22.720Z,80.51
2023-03-07T14:13:18.636Z,81.40
2023-03-07T14:16:12.074Z,81.13
2023-03-07T14:18:47.837Z,80.96
2023-03-07T14:21:38.543Z,80.88
2023-03-07T14:24:11.520Z,81.12
2023-03-07T14:26:53.281Z,80.71
2023-03-07T14:29:28.158Z,81.26
2023-03-07T14:31:57.235Z,81.25
2023-03-07T14:34:34.708Z,80.71
2023-03-07T14:37:06.172Z,80.65
2023-03-07T14:40:00.820Z,80.21
2023-03-07T14:42:42.653Z,80.97
2023-03-07T14:45:50.233Z,80.67
2023-03-07T14:48:43.908Z,80.52
2023-03-07T14:51:20.836Z,80.14
2023-03-07T14:53:49.336Z,80.54
2023-03-07T14:56:27.453Z,81.15
2023-03-07T14:59:01.791Z,81.31
2023-03-07T15:01:40.591Z,80.07
2023-03-07T15:04:24.810Z,80.48
2023-03-07T15:07:04.741Z,80.20
2023-03-07T15:09:32.584Z,80.10
2023-03-07T15:11:59.132Z,79.90
2023-03-07T15:14:48.438Z,80.16
2023-03-07T15:17:26.369Z,80.05
2023-03-07T15:20:07.834Z,80.35
2023-03-07T15:22:40.692Z,80.35
2023-03-07T15:25:18.561Z,80.71
2023-03-07T15:27:45.398Z,81.00
2023-03-07T15:30:28.861Z,81.69
2023-03-07T15:33:20.437Z,81.91
2023-03-07T15:36:07.700Z,82.09
2023-03-07T15:38:35.370Z,82.13
2023-03-07T15:41:01.908Z,83.02
2023-03-07T15:43:34.999Z,83.02
2023-03-07T15:46:03.417Z,83.38
2023-03-07T15:48:50.488Z,83.91
2023-03-07T15:51:22.939Z,84.90
2023-03-07T15:54:03.574Z,84.60
2023-03-07T15:56:38.010Z,84.85
2023-03-07T15:59:16.225Z,85.22
2023-03-07T16:01:43.046Z,86.14
2023-03-07T16:04:39.826Z,86.35
2023-03-07T16:07:16.189Z,86.69
2023-03-07T16:09:42.801Z,86.96
2023-03-07T16:12:14.933Z,87.45
2023-03-07T16:14:42.210Z,87.61
2023-03-07T16:17:30.567Z,88.09
2023-03-07T16:19:57.776Z,89.07
2023-03-07T16:22:24.627Z,97.10
2023-03-07T16:24:51.305Z,100.00
2023-03-07T16:27:23.322Z,100.00
2023-03-07T16:29:50.658Z,100.00
2023-03-07T16:32:19.276Z,100.00
2023-03-07T16:34:46.458Z,100.00
2023-03-07T16:37:13.508Z,100.00
2023-03-07T16:39:41.206Z,100.00
2023-03-07T16:42:18.527Z,100.00
2023-03-07T16:44:45.388Z,100.00
2023-03-07T16:47:18.074Z,100.00
2023-03-07T16:49:46.895Z,100.00
2023-03-07T16:52:14.203Z,100.00
2023-03-07T16:54:41.184Z,100.00
2023-03-07T16:57:17.123Z,100.00
2023-03-07T16:59:47.132Z,100.00
2023-03-07T17:02:17.246Z,100.00
2023-03-07T17:04:44.624Z,100.00
2023-03-07T17:07:19.150Z,100.00
2023-03-07T17:09:45.948Z,100.00
2023-03-07T17:12:12.894Z,100.00
2023-03-07T17:14:39.815Z,100.00
2023-03-07T17:17:07.061Z,100.00
2023-03-07T17:19:34.673Z,100.00
2023-03-07T17:22:02.194Z,100.00
2023-03-07T17:24:29.564Z,100.00
2023-03-07T17:27:00.286Z,100.00
2023-03-07T17:29:50.155Z,100.00
2023-03-07T17:32:17.414Z,100.00
2023-03-07T17:34:44.417Z,100.00
2023-03-07T17:37:11.963Z,100.00
2023-03-07T17:39:39.434Z,100.00
2023-03-07T17:42:06.604Z,100.00
2023-03-07T17:44:33.258Z,100.00
2023-03-07T17:47:00.133Z,100.00
2023-03-07T17:49:32.859Z,100.00
2023-03-07T17:51:59.486Z,100.00
2023-03-07T17:54:26.044Z,100.00
2023-03-07T17:56:52.654Z,100.00
2023-03-07T17:59:19.236Z,100.00
2023-03-07T18:01:45.944Z,100.00
2023-03-07T18:04:12.569Z,100.00
2023-03-07T18:06:41.005Z,100.00
2023-03-07T18:09:08.529Z,100.00
2023-03-07T18:11:35.555Z,100.00
2023-03-07T18:14:02.460Z,100.00
2023-03-07T18:16:29.292Z,100.00
2023-03-07T18:19:00.241Z,100.00
2023-03-07T18:21:29.903Z,100.00
2023-03-07T18:23:57.365Z,100.00
2023-03-07T18:26:24.079Z,100.00
2023-03-07T18:28:53.351Z,100.00
2023-03-07T18:31:25.607Z,100.00
2023-03-07T18:33:53.234Z,100.00
2023-03-07T18:36:21.904Z,100.00
2023-03-07T18:38:49.250Z,100.00
2023-03-07T18:41:19.365Z,100.00
2023-03-07T18:43:46.403Z,100.00
2023-03-07T18:46:15.742Z,100.00
2023-03-07T18:48:42.915Z,100.00
2023-03-07T18:51:12.379Z,100.00
2023-03-07T18:53:39.783Z,100.00
2023-03-07T18:56:11.977Z,100.00
2023-03-07T18:58:39.660Z,100.00
2023-03-07T19:01:34.043Z,100.00
2023-03-07T19:04:03.536Z,100.00
2023-03-07T19:06:39.816Z,100.00
2023-03-07T19:09:17.908Z,100.00
2023-03-07T19:11:45.236Z,100.00
2023-03-07T19:14:12.532Z,100.00
2023-03-07T19:16:39.406Z,100.00
2023-03-07T19:19:06.094Z,100.00
2023-03-07T19:21:32.750Z,100.00
2023-03-07T19:24:01.733Z,100.00
2023-03-07T19:26:28.679Z,100.00
2023-03-07T19:28:56.631Z,100.00
2023-03-07T19:31:26.988Z,100.00
2023-03-07T19:33:54.217Z,100.00
2023-03-07T19:36:27.029Z,100.00
2023-03-07T19:38:55.625Z,100.00
2023-03-07T19:41:25.011Z,100.00
2023-03-07T19:43:52.156Z,100.00
2023-03-07T19:46:20.503Z,100.00
2023-03-07T19:48:47.973Z,100.00
2023-03-07T19:51:17.372Z,100.00
2023-03-07T19:53:45.374Z,100.00
2023-03-07T19:56:15.414Z,100.00
2023-03-07T19:58:42.004Z,100.00
2023-03-07T20:01:10.515Z,100.00
2023-03-07T20:03:37.345Z,100.00
2023-03-07T20:06:05.392Z,100.00
2023-03-07T20:08:33.686Z,100.00
2023-03-07T20:11:10.783Z,100.00
2023-03-07T20:13:37.648Z,100.00
2023-03-07T20:16:04.672Z,100.00
2023-03-07T20:18:31.282Z,100.00
2023-03-07T20:21:02.899Z,100.00
2023-03-07T20:23:29.620Z,100.00
2023-03-07T20:26:12.197Z,100.00
2023-03-07T20:28:39.288Z,100.00
2023-03-07T20:31:10.641Z,100.00
2023-03-07T20:33:39.257Z,100.00
2023-03-07T20:36:09.814Z,100.00
2023-03-07T20:38:37.613Z,100.00
2023-03-07T20:41:06.775Z,100.00
2023-03-07T20:43:34.061Z,100.00
2023-03-07T20:46:05.858Z,100.00
2023-03-07T20:48:32.865Z,100.00
2023-03-07T20:51:18.332Z,100.00
2023-03-07T20:53:46.317Z,100.00
2023-03-07T20:56:12.986Z,100.00
2023-03-07T20:58:39.544Z,100.00
2023-03-07T21:01:06.310Z,100.00
2023-03-07T21:03:33.149Z,100.00
2023-03-07T21:06:01.932Z,100.00
2023-03-07T21:08:34.082Z,100.00
2023-03-07T21:11:18.467Z,100.00
2023-03-07T21:13:47.639Z,100.00
2023-03-07T21:16:20.409Z,100.00
2023-03-07T21:18:47.614Z,100.00
2023-03-07T21:21:19.528Z,100.00
2023-03-07T21:23:46.645Z,100.00
2023-03-07T21:26:22.265Z,100.00
2023-03-07T21:28:50.722Z,100.00
2023-03-07T21:31:22.678Z,100.00
2023-03-07T21:33:54.452Z,100.00
2023-03-07T21:36:22.256Z,100.00
2023-03-07T21:38:49.164Z,100.00
2023-03-07T21:41:17.073Z,100.00
2023-03-07T21:43:43.745Z,100.00
2023-03-07T21:46:12.667Z,100.00
2023-03-07T21:48:39.735Z,100.00
2023-03-07T21:51:06.816Z,100.00
2023-03-07T21:53:34.339Z,100.00
2023-03-07T21:56:03.331Z,100.00
2023-03-07T21:58:31.049Z,100.00
2023-03-07T22:00:58.151Z,100.00
2023-03-07T22:03:26.752Z,100.00
2023-03-07T22:05:54.872Z,100.00
2023-03-07T22:08:22.938Z,100.00
2023-03-07T22:11:00.538Z,100.00
2023-03-07T22:13:28.434Z,100.00
2023-03-07T22:15:59.409Z,100.00
2023-03-07T22:18:27.460Z,100.00
2023-03-07T22:20:55.161Z,100.00
2023-03-07T22:23:26.632Z,100.00
2023-03-07T22:25:53.569Z,100.00
2023-03-07T22:28:20.477Z,100.00
2023-03-07T22:30:47.581Z,100.00
2023-03-07T22:33:14.110Z,100.00
2023-03-07T22:35:41.180Z,100.00
2023-03-07T22:38:07.825Z,100.00
2023-03-07T22:40:34.449Z,100.00
2023-03-07T22:43:01.027Z,100.00
2023-03-07T22:45:27.576Z,100.00
2023-03-07T22:47:54.296Z,100.00
2023-03-07T22:50:21.159Z,100.00
2023-03-07T22:52:48.297Z,100.00
2023-03-07T22:55:15.049Z,100.00
2023-03-07T22:57:41.754Z,100.00
2023-03-07T23:00:09.229Z,100.00
2023-03-07T23:02:35.805Z,100.00
2023-03-07T23:05:02.401Z,100.00
2023-03-07T23:07:29.098Z,100.00
2023-03-07T23:09:55.717Z,100.00
2023-03-07T23:12:22.417Z,100.00
2023-03-07T23:14:49.057Z,100.00
2023-03-07T23:17:15.689Z,100.00
2023-03-07T23:19:42.385Z,100.00
2023-03-07T23:22:09.030Z,100.00
2023-03-07T23:24:36.323Z,100.00
2023-03-07T23:27:03.034Z,100.00
2023-03-07T23:29:29.613Z,100.00
2023-03-07T23:31:56.271Z,100.00
2023-03-07T23:34:22.821Z,100.00
2023-03-07T23:36:49.528Z,100.00
2023-03-07T23:39:17.600Z,100.00
2023-03-07T23:41:44.255Z,100.00
2023-03-07T23:44:11.653Z,100.00
2023-03-07T23:46:38.853Z,100.00
2023-03-07T23:49:05.715Z,100.00
2023-03-07T23:51:32.373Z,100.00
2023-03-07T23:53:59.096Z,100.00
2023-03-07T23:56:25.835Z,100.00
2023-03-07T23:58:52.589Z,100.00
